createdAt,value
2023-04-03T00:00:32.917Z,2.31
2023-04-03T00:03:25.148Z,2.28
2023-04-03T00:06:01.616Z,2.26
2023-04-03T00:08:38.944Z,2.26
2023-04-03T00:11:16.300Z,2.25
2023-04-03T00:13:53.324Z,2.25
2023-04-03T00:16:29.767Z,2.23
2023-04-03T00:19:06.467Z,2.22
2023-04-03T00:21:42.732Z,2.20
2023-04-03T00:24:19.122Z,2.15
2023-04-03T00:26:55.921Z,2.13
2023-04-03T00:29:32.224Z,2.09
2023-04-03T00:32:08.867Z,2.05
2023-04-03T00:34:45.326Z,2.02
2023-04-03T00:37:21.707Z,1.97
2023-04-03T00:39:58.258Z,1.93
2023-04-03T00:42:34.557Z,1.89
2023-04-03T00:45:39.542Z,1.86
2023-04-03T00:48:22.998Z,1.81
2023-04-03T00:51:00.016Z,1.76
2023-04-03T00:53:44.046Z,1.73
2023-04-03T00:56:27.212Z,1.68
2023-04-03T00:59:11.006Z,1.64
2023-04-03T01:01:49.039Z,1.63
2023-04-03T01:04:38.169Z,1.59
2023-04-03T01:07:21.940Z,1.56
2023-04-03T01:10:04.270Z,1.53
2023-04-03T01:12:47.005Z,1.51
2023-04-03T01:15:27.662Z,1.49
2023-04-03T01:18:05.876Z,1.47
2023-04-03T01:21:38.683Z,1.45
2023-04-03T01:24:36.428Z,1.43
2023-04-03T01:27:15.873Z,1.42
2023-04-03T01:29:52.419Z,1.43
2023-04-03T01:32:28.828Z,1.46
2023-04-03T01:35:06.047Z,1.46
2023-04-03T01:37:42.527Z,1.46
2023-04-03T01:40:20.638Z,1.45
2023-04-03T01:42:57.347Z,1.46
2023-04-03T01:45:33.677Z,1.46
2023-04-03T01:48:10.071Z,1.45
2023-04-03T01:50:46.815Z,1.44
2023-04-03T01:53:23.529Z,1.43
2023-04-03T01:55:59.920Z,1.42
2023-04-03T01:58:36.712Z,1.42
2023-04-03T02:01:13.633Z,1.40
2023-04-03T02:03:50.250Z,1.41
2023-04-03T02:06:27.667Z,1.41
2023-04-03T02:09:04.178Z,1.41
2023-04-03T02:11:40.529Z,1.44
2023-04-03T02:14:17.317Z,1.42
2023-04-03T02:16:54.415Z,1.43
2023-04-03T02:19:32.917Z,1.44
2023-04-03T02:22:09.750Z,1.44
2023-04-03T02:24:46.155Z,1.42
2023-04-03T02:27:22.711Z,1.40
2023-04-03T02:29:59.197Z,1.41
2023-04-03T02:32:35.631Z,1.39
2023-04-03T02:35:14.332Z,1.39
2023-04-03T02:37:50.582Z,1.37
2023-04-03T02:40:26.863Z,1.36
2023-04-03T02:43:03.275Z,1.34
2023-04-03T02:45:40.055Z,1.34
2023-04-03T02:48:17.907Z,1.30
2023-04-03T02:50:55.047Z,1.30
2023-04-03T02:53:31.393Z,1.29
2023-04-03T02:56:09.075Z,1.28
2023-04-03T02:58:45.462Z,1.27
2023-04-03T03:01:21.782Z,1.25
2023-04-03T03:03:59.794Z,1.22
2023-04-03T03:06:36.403Z,1.20
2023-04-03T03:09:14.303Z,1.21
2023-04-03T03:11:52.486Z,1.20
2023-04-03T03:14:28.786Z,1.20
2023-04-03T03:17:05.040Z,1.18
2023-04-03T03:19:41.408Z,1.18
2023-04-03T03:22:18.502Z,1.18
2023-04-03T03:24:54.875Z,1.18
2023-04-03T03:27:31.868Z,1.18
2023-04-03T03:30:10.817Z,1.19
2023-04-03T03:32:47.147Z,1.19
2023-04-03T03:35:23.729Z,1.19
2023-04-03T03:38:00.003Z,1.20
2023-04-03T03:40:36.947Z,1.20
2023-04-03T03:43:13.303Z,1.19
2023-04-03T03:45:54.343Z,1.17
2023-04-03T03:48:32.073Z,1.17
2023-04-03T03:51:08.954Z,1.18
2023-04-03T03:53:48.457Z,1.18
2023-04-03T03:56:26.444Z,1.18
2023-04-03T03:59:03.312Z,1.17
2023-04-03T04:01:41.954Z,1.17
2023-04-03T04:04:18.590Z,1.16
2023-04-03T04:06:55.201Z,1.15
2023-04-03T04:09:32.395Z,1.15
2023-04-03T04:12:09.446Z,1.13
2023-04-03T04:14:47.844Z,1.10
2023-04-03T04:17:25.242Z,1.09
2023-04-03T04:20:02.408Z,1.09
2023-04-03T04:22:40.207Z,1.09
2023-04-03T04:25:17.472Z,1.09
2023-04-03T04:27:54.475Z,1.07
2023-04-03T04:30:30.930Z,1.07
2023-04-03T04:33:09.174Z,1.06
2023-04-03T04:35:49.279Z,1.01
2023-04-03T04:38:26.365Z,0.99
2023-04-03T04:41:03.250Z,0.99
2023-04-03T04:43:40.645Z,0.96
2023-04-03T04:46:17.761Z,0.97
2023-04-03T04:48:57.992Z,0.95
2023-04-03T04:51:41.058Z,0.96
2023-04-03T04:54:22.260Z,0.95
2023-04-03T04:56:59.060Z,0.95
2023-04-03T04:59:36.483Z,0.94
2023-04-03T05:02:13.372Z,0.96
2023-04-03T05:04:53.236Z,0.98
2023-04-03T05:07:30.809Z,0.98
2023-04-03T05:10:10.203Z,0.97
2023-04-03T05:12:46.532Z,1.00
2023-04-03T05:15:23.239Z,1.02
2023-04-03T05:18:00.382Z,1.02
2023-04-03T05:20:38.075Z,1.02
2023-04-03T05:23:14.785Z,1.03
2023-04-03T05:25:51.948Z,1.05
2023-04-03T05:28:28.636Z,1.04
2023-04-03T05:31:05.263Z,1.04
2023-04-03T05:33:44.541Z,1.05
2023-04-03T05:36:23.738Z,1.04
2023-04-03T05:39:03.933Z,1.02
2023-04-03T05:41:40.946Z,1.02
2023-04-03T05:44:17.475Z,1.03
2023-04-03T05:46:54.395Z,1.02
2023-04-03T05:49:30.802Z,1.02
2023-04-03T05:52:07.985Z,1.08
2023-04-03T05:54:45.507Z,1.14
2023-04-03T05:57:26.302Z,1.23
2023-04-03T06:00:03.564Z,1.25
2023-04-03T06:02:40.004Z,1.32
2023-04-03T06:05:17.549Z,1.33
2023-04-03T06:07:53.871Z,1.34
2023-04-03T06:10:30.536Z,1.38
2023-04-03T06:13:07.422Z,1.42
2023-04-03T06:15:44.025Z,1.45
2023-04-03T06:18:20.667Z,1.47
2023-04-03T06:20:57.437Z,1.52
2023-04-03T06:23:33.971Z,1.59
2023-04-03T06:26:10.372Z,1.69
2023-04-03T06:28:46.807Z,1.77
2023-04-03T06:31:23.427Z,1.84
2023-04-03T06:33:59.773Z,1.90
2023-04-03T06:36:36.569Z,1.87
2023-04-03T06:39:17.725Z,1.92
2023-04-03T06:41:54.525Z,1.99
2023-04-03T06:44:39.033Z,1.98
2023-04-03T06:47:18.407Z,2.07
2023-04-03T06:49:55.028Z,2.13
2023-04-03T06:52:34.328Z,2.21
2023-04-03T06:55:12.535Z,2.29
2023-04-03T06:57:48.702Z,2.38
2023-04-03T07:00:27.189Z,2.51
2023-04-03T07:03:03.976Z,2.63
2023-04-03T07:05:41.271Z,2.73
2023-04-03T07:08:17.825Z,2.87
2023-04-03T07:10:54.493Z,3.05
2023-04-03T07:13:31.274Z,3.43
2023-04-03T07:16:09.875Z,3.86
2023-04-03T07:18:46.689Z,4.26
2023-04-03T07:21:22.915Z,4.65
2023-04-03T07:23:59.633Z,5.02
2023-04-03T07:26:36.475Z,5.43
2023-04-03T07:29:12.854Z,5.76
2023-04-03T07:31:50.434Z,5.95
2023-04-03T07:34:27.109Z,5.97
2023-04-03T07:37:04.090Z,5.90
2023-04-03T07:39:40.349Z,5.88
2023-04-03T07:42:16.613Z,5.78
2023-04-03T07:44:53.185Z,5.59
2023-04-03T07:47:29.736Z,5.39
2023-04-03T07:50:07.050Z,5.34
2023-04-03T07:54:44.581Z,5.47
2023-04-03T07:57:21.414Z,5.54
2023-04-03T07:59:57.994Z,5.76
2023-04-03T08:02:34.551Z,5.90
2023-04-03T08:05:12.772Z,6.26
2023-04-03T08:07:49.482Z,6.48
2023-04-03T08:10:26.103Z,6.36
2023-04-03T08:13:02.978Z,6.28
2023-04-03T08:15:40.031Z,6.13
2023-04-03T08:18:17.284Z,5.86
2023-04-03T08:20:54.066Z,5.52
2023-04-03T08:23:30.543Z,5.24
2023-04-03T08:26:15.249Z,5.01
2023-04-03T08:28:51.866Z,4.74
2023-04-03T08:31:28.830Z,4.38
2023-04-03T08:34:05.393Z,4.06
2023-04-03T08:36:42.237Z,3.85
2023-04-03T08:39:18.582Z,3.69
2023-04-03T08:41:57.478Z,3.53
2023-04-03T08:44:56.688Z,3.38
2023-04-03T08:47:44.703Z,3.18
2023-04-03T08:50:29.242Z,3.06
2023-04-03T08:53:14.385Z,2.94
2023-04-03T08:55:53.928Z,2.92
2023-04-03T08:58:35.627Z,2.92
2023-04-03T09:01:27.527Z,2.88
2023-04-03T09:04:06.518Z,2.81
2023-04-03T09:06:45.115Z,2.74
2023-04-03T09:09:37.686Z,2.58
2023-04-03T09:12:27.533Z,2.45
2023-04-03T09:15:31.288Z,2.37
2023-04-03T09:18:26.997Z,2.25
2023-04-03T09:21:19.302Z,2.20
2023-04-03T09:24:00.602Z,2.11
2023-04-03T09:26:45.940Z,2.04
2023-04-03T09:29:26.538Z,2.05
2023-04-03T09:32:19.251Z,2.10
2023-04-03T09:35:01.535Z,2.07
2023-04-03T09:37:45.769Z,2.07
2023-04-03T09:40:53.801Z,2.09
2023-04-03T09:43:34.378Z,2.14
2023-04-03T09:46:38.130Z,2.20
2023-04-03T09:49:17.310Z,2.25
2023-04-03T09:51:55.010Z,2.25
2023-04-03T09:54:44.578Z,2.28
2023-04-03T09:57:21.601Z,2.36
2023-04-03T10:00:21.010Z,2.43
2023-04-03T10:03:01.525Z,2.46
2023-04-03T10:05:42.380Z,2.46
2023-04-03T10:08:32.843Z,2.50
2023-04-03T10:11:19.783Z,2.54
2023-04-03T10:14:02.657Z,2.58
2023-04-03T10:16:54.659Z,2.59
2023-04-03T10:19:42.544Z,2.64
2023-04-03T10:22:39.471Z,2.76
2023-04-03T10:25:31.487Z,2.84
2023-04-03T10:28:12.769Z,2.86
2023-04-03T10:31:00.965Z,2.93
2023-04-03T10:33:59.441Z,2.95
2023-04-03T10:36:48.750Z,3.01
2023-04-03T10:39:42.204Z,3.05
2023-04-03T10:42:29.749Z,3.12
2023-04-03T10:45:29.707Z,3.19
2023-04-03T10:48:20.696Z,3.24
2023-04-03T10:51:09.673Z,3.31
2023-04-03T10:53:59.156Z,3.40
2023-04-03T10:56:45.435Z,3.37
2023-04-03T10:59:32.538Z,3.32
2023-04-03T11:02:21.759Z,3.41
2023-04-03T11:05:10.452Z,3.54
2023-04-03T11:07:52.682Z,3.61
2023-04-03T11:10:40.558Z,3.67
2023-04-03T11:13:25.168Z,3.76
2023-04-03T11:17:45.354Z,3.94
2023-04-03T11:22:37.488Z,4.06
2023-04-03T11:25:27.718Z,4.10
2023-04-03T11:28:07.564Z,4.07
2023-04-03T11:30:58.194Z,4.10
2023-04-03T11:33:55.256Z,4.19
2023-04-03T11:36:41.833Z,4.27
2023-04-03T11:39:30.800Z,4.34
2023-04-03T11:45:52.889Z,4.50
2023-04-03T11:48:57.538Z,4.41
2023-04-03T11:51:59.317Z,4.47
2023-04-03T11:54:55.338Z,4.52
2023-04-03T11:58:19.001Z,4.47
2023-04-03T12:01:01.208Z,4.73
2023-04-03T12:04:16.892Z,4.79
2023-04-03T12:07:20.115Z,4.82
2023-04-03T12:10:31.251Z,4.86
2023-04-03T12:13:22.874Z,4.76
2023-04-03T12:16:01.118Z,4.66
2023-04-03T12:19:05.914Z,4.59
2023-04-03T12:22:25.783Z,4.74
2023-04-03T12:25:22.072Z,4.90
2023-04-03T12:27:58.954Z,4.99
2023-04-03T12:30:37.740Z,5.06
2023-04-03T12:33:41.593Z,5.04
2023-04-03T12:36:30.581Z,5.00
2023-04-03T12:39:36.278Z,5.01
2023-04-03T12:42:35.038Z,4.96
2023-04-03T12:45:23.363Z,4.90
2023-04-03T12:48:04.765Z,4.93
2023-04-03T12:50:43.103Z,4.87
2023-04-03T12:53:27.170Z,4.80
2023-04-03T12:56:26.507Z,4.79
2023-04-03T12:59:21.326Z,4.74
2023-04-03T13:02:08.808Z,4.71
2023-04-03T13:04:46.010Z,4.70
2023-04-03T13:07:34.650Z,4.75
2023-04-03T13:10:23.116Z,4.87
2023-04-03T13:13:10.279Z,4.94
2023-04-03T13:15:53.876Z,4.87
2023-04-03T13:18:38.285Z,4.85
2023-04-03T13:21:22.932Z,4.81
2023-04-03T13:24:14.910Z,4.81
2023-04-03T13:26:53.238Z,4.83
2023-04-03T13:29:35.439Z,4.72
2023-04-03T13:32:18.613Z,4.64
2023-04-03T13:34:58.303Z,4.56
2023-04-03T13:37:39.362Z,4.60
2023-04-03T13:40:19.629Z,4.66
2023-04-03T13:43:19.659Z,4.60
2023-04-03T13:46:24.509Z,4.46
2023-04-03T13:49:19.147Z,4.40
2023-04-03T13:52:06.672Z,4.42
2023-04-03T13:54:48.233Z,4.44
2023-04-03T13:57:25.077Z,4.44
2023-04-03T14:00:01.831Z,4.46
2023-04-03T14:02:42.332Z,4.44
2023-04-03T14:05:22.254Z,4.40
2023-04-03T14:08:00.146Z,4.32
2023-04-03T14:10:37.255Z,4.33
2023-04-03T14:13:16.289Z,4.34
2023-04-03T14:15:55.022Z,4.32
2023-04-03T14:18:33.258Z,4.26
2023-04-03T14:21:09.790Z,4.24
2023-04-03T14:23:46.781Z,4.24
2023-04-03T14:26:27.568Z,4.23
2023-04-03T14:29:04.162Z,4.23
2023-04-03T14:31:41.594Z,4.23
2023-04-03T14:34:19.647Z,4.27
2023-04-03T14:36:56.011Z,4.27
2023-04-03T14:39:33.392Z,4.22
2023-04-03T14:42:13.837Z,4.17
2023-04-03T14:44:51.327Z,4.12
2023-04-03T14:47:32.545Z,4.07
2023-04-03T14:50:16.850Z,4.03
2023-04-03T14:52:55.814Z,3.99
2023-04-03T14:55:33.375Z,3.96
2023-04-03T14:58:10.785Z,3.94
2023-04-03T15:00:48.694Z,3.96
2023-04-03T15:03:27.025Z,3.98
2023-04-03T15:06:03.766Z,3.97
2023-04-03T15:08:42.079Z,3.97
2023-04-03T15:11:19.273Z,3.96
2023-04-03T15:13:55.629Z,3.91
2023-04-03T15:16:32.432Z,3.87
2023-04-03T15:19:09.187Z,3.87
2023-04-03T15:21:45.853Z,3.87
2023-04-03T15:24:22.094Z,3.92
2023-04-03T15:26:58.591Z,3.95
2023-04-03T15:29:35.122Z,4.01
2023-04-03T15:32:12.585Z,4.03
2023-04-03T15:34:48.977Z,4.03
2023-04-03T15:37:25.381Z,4.01
2023-04-03T15:40:01.995Z,3.96
2023-04-03T15:42:38.835Z,3.90
2023-04-03T15:45:16.343Z,3.82
2023-04-03T15:47:52.989Z,3.74
2023-04-03T15:50:29.538Z,3.67
2023-04-03T15:53:06.733Z,3.61
2023-04-03T15:55:44.242Z,3.57
2023-04-03T15:58:22.023Z,3.55
2023-04-03T16:01:02.734Z,3.52
2023-04-03T16:03:45.137Z,3.50
2023-04-03T16:06:22.702Z,3.47
2023-04-03T16:08:59.400Z,3.47
2023-04-03T16:11:38.444Z,3.46
2023-04-03T16:14:15.628Z,3.48
2023-04-03T16:16:55.225Z,3.45
2023-04-03T16:19:32.847Z,3.43
2023-04-03T16:22:09.535Z,3.40
2023-04-03T16:24:46.311Z,3.37
2023-04-03T16:27:22.980Z,3.32
2023-04-03T16:30:00.178Z,3.27
2023-04-03T16:32:38.293Z,3.22
2023-04-03T16:35:15.911Z,3.17
2023-04-03T16:37:52.623Z,3.12
2023-04-03T16:40:29.029Z,3.06
2023-04-03T16:43:06.085Z,3.03
2023-04-03T16:45:43.468Z,2.98
2023-04-03T16:48:20.722Z,2.95
2023-04-03T16:50:57.330Z,2.92
2023-04-03T16:53:33.833Z,2.87
2023-04-03T16:56:11.284Z,2.82
2023-04-03T16:58:47.991Z,2.78
2023-04-03T17:01:26.292Z,2.74
2023-04-03T17:04:02.773Z,2.68
2023-04-03T17:06:39.477Z,2.63
2023-04-03T17:09:16.905Z,2.57
2023-04-03T17:11:54.506Z,2.50
2023-04-03T17:14:31.489Z,2.43
2023-04-03T17:17:09.084Z,2.37
2023-04-03T17:19:46.975Z,2.30
2023-04-03T17:22:24.163Z,2.22
2023-04-03T17:25:01.051Z,2.15
2023-04-03T17:27:37.648Z,2.10
2023-04-03T17:30:17.669Z,2.04
2023-04-03T17:32:54.317Z,1.97
2023-04-03T17:35:31.422Z,1.90
2023-04-03T17:38:08.080Z,1.82
2023-04-03T17:40:45.996Z,1.75
2023-04-03T17:43:22.647Z,1.69
2023-04-03T17:46:08.944Z,1.63
2023-04-03T17:48:47.058Z,1.57
2023-04-03T17:51:26.593Z,1.50
2023-04-03T17:54:03.367Z,1.42
2023-04-03T17:56:40.260Z,1.38
2023-04-03T17:59:17.510Z,1.33
2023-04-03T18:01:54.491Z,1.26
2023-04-03T18:04:32.091Z,1.21
2023-04-03T18:07:10.171Z,1.16
2023-04-03T18:09:50.572Z,1.12
2023-04-03T18:12:27.650Z,1.07
2023-04-03T18:15:06.705Z,1.02
2023-04-03T18:17:43.285Z,0.96
2023-04-03T18:20:22.001Z,0.91
2023-04-03T18:23:00.492Z,0.86
2023-04-03T18:25:38.498Z,0.80
2023-04-03T18:28:16.278Z,0.75
2023-04-03T18:30:53.248Z,0.69
2023-04-03T18:33:30.757Z,0.66
2023-04-03T18:36:09.259Z,0.62
2023-04-03T18:38:46.149Z,0.59
2023-04-03T18:41:28.234Z,0.55
2023-04-03T18:44:08.947Z,0.51
2023-04-03T18:46:46.082Z,0.47
2023-04-03T18:49:23.183Z,0.44
2023-04-03T18:52:00.624Z,0.43
2023-04-03T18:54:38.532Z,0.41
2023-04-03T18:57:15.667Z,0.41
2023-04-03T18:59:52.332Z,0.41
2023-04-03T19:02:30.985Z,0.41
2023-04-03T19:05:12.044Z,0.42
2023-04-03T19:07:50.670Z,0.43
2023-04-03T19:10:27.845Z,0.45
2023-04-03T19:13:05.475Z,0.47
2023-04-03T19:15:42.301Z,0.48
2023-04-03T19:18:18.966Z,0.50
2023-04-03T19:20:57.531Z,0.52
2023-04-03T19:23:34.871Z,0.55
2023-04-03T19:26:14.177Z,0.59
2023-04-03T19:28:51.159Z,0.61
2023-04-03T19:31:27.939Z,0.64
2023-04-03T19:34:05.652Z,0.67
2023-04-03T19:36:43.383Z,0.70
2023-04-03T19:39:19.946Z,0.73
2023-04-03T19:41:57.318Z,0.77
2023-04-03T19:44:36.719Z,0.79
2023-04-03T19:47:16.265Z,0.82
2023-04-03T19:49:53.260Z,0.84
2023-04-03T19:52:30.037Z,0.88
2023-04-03T19:55:08.394Z,0.92
2023-04-03T19:57:44.749Z,0.98
2023-04-03T20:00:23.773Z,1.02
2023-04-03T20:03:00.468Z,1.07
2023-04-03T20:05:37.290Z,1.11
2023-04-03T20:08:14.066Z,1.16
2023-04-03T20:10:51.341Z,1.19
2023-04-03T20:13:27.671Z,1.23
2023-04-03T20:16:08.327Z,1.25
2023-04-03T20:18:44.955Z,1.28
2023-04-03T20:21:21.325Z,1.32
2023-04-03T20:23:57.817Z,1.34
2023-04-03T20:26:43.884Z,1.35
2023-04-03T20:29:20.685Z,1.35
2023-04-03T20:32:00.354Z,1.35
2023-04-03T20:34:36.864Z,1.35
2023-04-03T20:37:14.474Z,1.36
2023-04-03T20:39:50.889Z,1.36
2023-04-03T20:42:28.046Z,1.37
2023-04-03T20:45:06.118Z,1.38
2023-04-03T20:47:43.595Z,1.38
2023-04-03T20:50:21.423Z,1.39
2023-04-03T20:53:03.344Z,1.40
2023-04-03T20:55:38.126Z,1.40
2023-04-03T20:58:14.515Z,1.41
2023-04-03T21:00:50.927Z,1.41
2023-04-03T21:03:28.825Z,1.43
2023-04-03T21:06:00.432Z,1.46
2023-04-03T21:09:47.086Z,1.47
2023-04-03T21:13:32.709Z,1.48
2023-04-03T21:16:03.127Z,1.49
2023-04-03T21:19:15.990Z,1.49
2023-04-03T21:21:52.843Z,1.49
2023-04-03T21:24:29.574Z,1.48
2023-04-03T21:27:06.147Z,1.48
2023-04-03T21:29:42.901Z,1.48
2023-04-03T21:32:19.953Z,1.48
2023-04-03T21:34:56.530Z,1.48
2023-04-03T21:37:35.746Z,1.49
2023-04-03T21:40:14.323Z,1.48
2023-04-03T21:42:54.591Z,1.50
2023-04-03T21:45:31.292Z,1.50
2023-04-03T21:48:10.349Z,1.50
2023-04-03T21:50:46.922Z,1.50
2023-04-03T21:53:23.774Z,1.49
2023-04-03T21:56:02.794Z,1.49
2023-04-03T21:58:39.711Z,1.48
2023-04-03T22:01:18.528Z,1.48
2023-04-03T22:03:58.101Z,1.48
2023-04-03T22:06:34.468Z,1.47
2023-04-03T22:09:11.200Z,1.46
2023-04-03T22:11:49.178Z,1.45
2023-04-03T22:14:25.621Z,1.46
2023-04-03T22:17:02.584Z,1.46
2023-04-03T22:19:39.253Z,1.47
2023-04-03T22:22:15.670Z,1.48
2023-04-03T22:24:52.538Z,1.49
2023-04-03T22:27:29.083Z,1.49
2023-04-03T22:30:10.593Z,1.49
2023-04-03T22:32:47.415Z,1.50
2023-04-03T22:35:24.269Z,1.50
2023-04-03T22:38:00.827Z,1.50
2023-04-03T22:40:37.403Z,1.51
2023-04-03T22:43:14.551Z,1.51
2023-04-03T22:45:54.321Z,1.52
2023-04-03T22:48:32.006Z,1.50
2023-04-03T22:51:10.832Z,1.51
2023-04-03T22:53:47.120Z,1.49
2023-04-03T22:56:25.986Z,1.48
2023-04-03T22:59:03.549Z,1.47
2023-04-03T23:01:40.107Z,1.45
2023-04-03T23:04:17.605Z,1.43
2023-04-03T23:06:54.230Z,1.41
2023-04-03T23:09:30.488Z,1.42
2023-04-03T23:12:09.893Z,1.40
2023-04-03T23:14:46.332Z,1.38
2023-04-03T23:17:22.991Z,1.36
2023-04-03T23:19:59.767Z,1.34
2023-04-03T23:22:36.435Z,1.31
2023-04-03T23:25:14.503Z,1.28
2023-04-03T23:27:57.655Z,1.25
2023-04-03T23:30:34.010Z,1.21
2023-04-03T23:33:11.619Z,1.18
2023-04-03T23:35:52.593Z,1.15
2023-04-03T23:38:29.750Z,1.11
2023-04-03T23:41:06.267Z,1.08
2023-04-03T23:43:43.415Z,1.04
2023-04-03T23:46:20.186Z,1.01
2023-04-03T23:48:57.541Z,0.96
2023-04-03T23:51:33.962Z,0.90
2023-04-03T23:54:10.647Z,0.85
2023-04-03T23:56:46.897Z,0.80
2023-04-03T23:59:23.336Z,0.77
